createdAt,value
2023-02-04T00:00:41.665Z,99808.59
2023-02-04T00:03:10.002Z,99797.69
2023-02-04T00:05:37.822Z,99806.94
2023-02-04T00:08:06.083Z,99809.47
2023-02-04T00:10:34.327Z,99802.84
2023-02-04T00:13:02.452Z,99811.31
2023-02-04T00:15:30.712Z,99809.69
2023-02-04T00:17:59.061Z,99819.94
2023-02-04T00:20:27.120Z,99814.84
2023-02-04T00:22:55.326Z,99817.50
2023-02-04T00:25:23.426Z,99811.72
2023-02-04T00:27:54.290Z,99828.13
2023-02-04T00:30:22.210Z,99828.25
2023-02-04T00:32:55.280Z,99828.44
2023-02-04T00:35:26.304Z,99824.41
2023-02-04T00:37:54.744Z,99833.03
2023-02-04T00:40:22.731Z,99834.91
2023-02-04T00:42:50.411Z,99837.47
2023-02-04T00:45:18.569Z,99831.56
2023-02-04T00:47:46.320Z,99835.19
2023-02-04T00:50:18.013Z,99836.78
2023-02-04T00:52:46.363Z,99843.69
2023-02-04T00:55:17.263Z,99840.94
2023-02-04T00:57:47.887Z,99843.44
2023-02-04T01:00:16.718Z,99840.72
2023-02-04T01:02:45.179Z,99843.16
2023-02-04T01:05:13.178Z,99844.84
2023-02-04T01:07:41.404Z,99847.47
2023-02-04T01:10:12.485Z,99823.66
2023-02-04T01:12:40.611Z,99844.72
2023-02-04T01:15:09.446Z,99851.63
2023-02-04T01:17:37.301Z,99849.78
2023-02-04T01:20:05.320Z,99840.50
2023-02-04T01:22:33.537Z,99856.59
2023-02-04T01:25:01.413Z,99851.47
2023-02-04T01:27:41.178Z,99860.16
2023-02-04T01:30:09.810Z,99851.00
2023-02-04T01:32:38.133Z,99861.06
2023-02-04T01:35:06.775Z,99854.31
2023-02-04T01:37:34.745Z,99864.34
2023-02-04T01:40:02.576Z,99876.41
2023-02-04T01:42:30.996Z,99856.84
2023-02-04T01:45:01.868Z,99870.47
2023-02-04T01:47:31.437Z,99871.37
2023-02-04T01:49:59.430Z,99869.09
2023-02-04T01:52:35.910Z,99869.81
2023-02-04T01:55:06.536Z,99872.34
2023-02-04T01:57:35.946Z,99872.34
2023-02-04T02:00:04.475Z,99871.56
2023-02-04T02:02:49.052Z,99877.69
2023-02-04T02:05:23.857Z,99882.72
2023-02-04T02:07:54.489Z,99883.78
2023-02-04T02:10:23.873Z,99882.97
2023-02-04T02:12:56.108Z,99875.44
2023-02-04T02:15:25.189Z,99880.47
2023-02-04T02:17:55.251Z,99885.59
2023-02-04T02:20:25.865Z,99892.50
2023-02-04T02:23:32.980Z,99892.44
2023-02-04T02:26:00.810Z,99897.66
2023-02-04T02:28:29.060Z,99890.62
2023-02-04T02:30:57.039Z,99900.97
2023-02-04T02:33:26.544Z,99898.50
2023-02-04T02:35:54.926Z,99899.34
2023-02-04T02:38:25.960Z,99888.13
2023-02-04T02:40:54.950Z,99899.28
2023-02-04T02:43:26.054Z,99896.88
2023-02-04T02:45:57.442Z,99908.84
2023-02-04T02:48:25.184Z,99908.09
2023-02-04T02:50:56.395Z,99911.56
2023-02-04T02:53:24.973Z,99913.28
2023-02-04T02:55:53.863Z,99919.25
2023-02-04T02:58:32.273Z,99914.16
2023-02-04T03:01:03.556Z,99919.38
2023-02-04T03:03:36.645Z,99911.72
2023-02-04T03:06:16.032Z,99916.87
2023-02-04T03:08:45.265Z,99930.50
2023-02-04T03:11:13.459Z,99930.53
2023-02-04T03:13:42.737Z,99940.81
2023-02-04T03:16:11.038Z,99940.81
2023-02-04T03:18:39.818Z,99939.91
2023-02-04T03:21:08.549Z,99941.81
2023-02-04T03:23:40.758Z,99945.19
2023-02-04T03:26:10.030Z,99952.97
2023-02-04T03:28:42.768Z,99952.09
2023-02-04T03:31:11.239Z,99951.31
2023-02-04T03:33:39.087Z,99925.87
2023-02-04T03:36:07.485Z,99946.19
2023-02-04T03:38:35.848Z,99957.31
2023-02-04T03:41:04.033Z,99960.69
2023-02-04T03:43:33.932Z,99965.06
2023-02-04T03:46:02.597Z,99959.91
2023-02-04T03:48:30.541Z,99960.84
2023-02-04T03:51:01.198Z,99964.22
2023-02-04T03:53:29.603Z,99965.13
2023-02-04T03:55:57.529Z,99960.78
2023-02-04T03:58:25.586Z,99962.63
2023-02-04T04:00:57.047Z,99956.50
2023-02-04T04:03:25.200Z,99964.25
2023-02-04T04:05:53.123Z,99953.53
2023-02-04T04:08:20.970Z,99967.91
2023-02-04T04:10:49.210Z,99966.94
2023-02-04T04:13:17.126Z,99973.03
2023-02-04T04:15:45.030Z,99970.47
2023-02-04T04:18:13.210Z,99977.31
2023-02-04T04:20:41.034Z,99975.59
2023-02-04T04:23:08.760Z,99977.25
2023-02-04T04:25:37.017Z,99976.56
2023-02-04T04:28:05.119Z,99978.13
2023-02-04T04:30:33.162Z,99986.91
2023-02-04T04:33:01.620Z,99986.91
2023-02-04T04:35:29.355Z,99987.78
2023-02-04T04:37:57.146Z,99991.16
2023-02-04T04:40:25.380Z,99993.75
2023-02-04T04:42:56.235Z,99991.28
2023-02-04T04:45:24.143Z,100002.53
2023-02-04T04:47:52.186Z,99999.81
2023-02-04T04:50:19.886Z,100006.66
2023-02-04T04:52:47.870Z,100005.84
2023-02-04T04:55:16.186Z,100008.53
2023-02-04T04:57:43.984Z,100014.50
2023-02-04T05:00:17.312Z,100018.75
2023-02-04T05:02:45.574Z,100012.75
2023-02-04T05:05:13.948Z,100000.94
2023-02-04T05:07:41.723Z,100014.50
2023-02-04T05:10:10.306Z,100019.63
2023-02-04T05:12:38.355Z,100023.09
2023-02-04T05:15:06.630Z,100024.84
2023-02-04T05:17:34.960Z,100018.03
2023-02-04T05:20:02.827Z,99994.50
2023-02-04T05:22:31.934Z,100024.06
2023-02-04T05:25:00.166Z,100034.44
2023-02-04T05:27:28.832Z,100024.19
2023-02-04T05:29:56.751Z,100031.84
2023-02-04T05:32:25.017Z,100033.56
2023-02-04T05:34:52.764Z,100032.72
2023-02-04T05:37:21.430Z,100023.37
2023-02-04T05:39:49.660Z,100033.53
2023-02-04T05:42:20.232Z,100042.00
2023-02-04T05:44:47.942Z,100047.13
2023-02-04T05:47:20.772Z,100046.09
2023-02-04T05:49:48.571Z,100042.69
2023-02-04T05:52:17.115Z,100054.44
2023-02-04T05:54:45.004Z,100056.00
2023-02-04T05:57:12.870Z,100059.34
2023-02-04T05:59:41.060Z,100056.84
2023-02-04T06:02:08.869Z,100072.22
2023-02-04T06:04:40.061Z,100069.56
2023-02-04T06:07:07.896Z,100073.72
2023-02-04T06:09:35.704Z,100077.84
2023-02-04T06:12:07.131Z,100077.00
2023-02-04T06:14:34.927Z,100086.84
2023-02-04T06:17:03.150Z,100083.16
2023-02-04T06:19:31.157Z,100089.84
2023-02-04T06:21:59.043Z,100096.69
2023-02-04T06:24:27.216Z,100108.53
2023-02-04T06:26:55.204Z,100104.81
2023-02-04T06:29:23.047Z,100109.03
2023-02-04T06:31:51.469Z,100109.03
2023-02-04T06:34:19.252Z,100112.50
2023-02-04T06:36:47.088Z,100119.44
2023-02-04T06:39:15.240Z,100121.16
2023-02-04T06:41:43.092Z,100116.88
2023-02-04T06:44:11.073Z,100119.38
2023-02-04T06:46:39.300Z,100123.62
2023-02-04T06:49:07.188Z,100121.81
2023-02-04T06:51:35.075Z,100135.53
2023-02-04T06:54:03.328Z,100126.88
2023-02-04T06:56:34.261Z,100127.72
2023-02-04T06:59:03.390Z,100134.72
2023-02-04T07:01:31.953Z,100131.22
2023-02-04T07:03:59.844Z,100137.06
2023-02-04T07:06:27.777Z,100141.19
2023-02-04T07:08:56.008Z,100138.63
2023-02-04T07:11:23.847Z,100121.94
2023-02-04T07:13:51.774Z,100149.84
2023-02-04T07:16:19.956Z,100130.69
2023-02-04T07:18:47.748Z,100150.03
2023-02-04T07:21:15.552Z,100121.97
2023-02-04T07:23:43.815Z,100154.00
2023-02-04T07:26:11.563Z,100159.78
2023-02-04T07:28:43.812Z,100149.56
2023-02-04T07:31:11.896Z,100159.31
2023-02-04T07:33:39.734Z,100162.53
2023-02-04T07:36:08.047Z,100173.25
2023-02-04T07:38:36.232Z,100168.81
2023-02-04T07:41:04.174Z,100174.62
2023-02-04T07:43:32.090Z,100175.87
2023-02-04T07:46:00.256Z,100180.72
2023-02-04T07:48:28.280Z,100178.69
2023-02-04T07:50:56.059Z,100175.31
2023-02-04T07:53:27.354Z,100182.28
2023-02-04T07:55:54.993Z,100184.09
2023-02-04T07:58:23.433Z,100185.09
2023-02-04T08:00:51.564Z,100195.47
2023-02-04T08:03:19.969Z,100205.88
2023-02-04T08:05:47.957Z,100209.31
2023-02-04T08:08:16.061Z,100199.84
2023-02-04T08:10:44.981Z,100208.53
2023-02-04T08:13:12.994Z,100211.16
2023-02-04T08:15:43.759Z,100214.34
2023-02-04T08:18:14.733Z,100218.56
2023-02-04T08:20:45.342Z,100211.09
2023-02-04T08:23:13.810Z,100213.53
2023-02-04T08:25:41.717Z,100215.88
2023-02-04T08:28:09.656Z,100199.31
2023-02-04T08:30:37.974Z,100216.84
2023-02-04T08:33:05.980Z,100215.91
2023-02-04T08:35:33.821Z,100217.59
2023-02-04T08:38:02.204Z,100221.56
2023-02-04T08:40:30.343Z,100217.06
2023-02-04T08:42:58.406Z,100208.50
2023-02-04T08:45:26.743Z,100227.75
2023-02-04T08:47:54.593Z,100223.19
2023-02-04T08:50:22.476Z,100221.19
2023-02-04T08:52:50.518Z,100226.72
2023-02-04T08:55:18.289Z,100226.41
2023-02-04T08:57:45.986Z,100227.75
2023-02-04T09:00:14.884Z,100228.16
2023-02-04T09:02:42.568Z,100229.22
2023-02-04T09:05:10.600Z,100228.88
2023-02-04T09:07:38.726Z,100214.94
2023-02-04T09:10:06.948Z,100223.16
2023-02-04T09:12:34.990Z,100226.44
2023-02-04T09:15:03.239Z,100208.00
2023-02-04T09:17:31.508Z,100234.69
2023-02-04T09:19:59.358Z,100234.00
2023-02-04T09:22:27.665Z,100197.91
2023-02-04T09:24:55.573Z,100240.25
2023-02-04T09:27:23.468Z,100240.25
2023-02-04T09:29:51.741Z,100245.09
2023-02-04T09:32:19.673Z,100224.91
2023-02-04T09:34:47.535Z,100247.03
2023-02-04T09:37:15.820Z,100234.97
2023-02-04T09:39:43.674Z,100249.81
2023-02-04T09:42:16.433Z,100248.94
2023-02-04T09:44:45.816Z,100250.66
2023-02-04T09:47:18.597Z,100243.72
2023-02-04T09:49:47.747Z,100253.38
2023-02-04T09:52:18.562Z,100255.94
2023-02-04T09:54:47.213Z,100255.41
2023-02-04T09:57:19.694Z,100259.91
2023-02-04T09:59:47.900Z,100263.53
2023-02-04T10:02:22.975Z,100267.37
2023-02-04T10:04:57.896Z,100267.03
2023-02-04T10:07:27.686Z,100267.94
2023-02-04T10:09:56.307Z,100267.69
2023-02-04T10:12:25.074Z,100259.81
2023-02-04T10:14:52.838Z,100262.84
2023-02-04T10:17:24.381Z,100267.94
2023-02-04T10:19:53.276Z,100275.41
2023-02-04T10:22:22.820Z,100270.38
2023-02-04T10:24:50.639Z,100269.59
2023-02-04T10:27:18.483Z,100274.44
2023-02-04T10:29:59.739Z,100272.47
2023-02-04T10:32:30.448Z,100270.09
2023-02-04T10:35:01.202Z,100269.09
2023-02-04T10:37:32.426Z,100280.09
2023-02-04T10:40:00.694Z,100281.66
2023-02-04T10:42:30.845Z,100289.47
2023-02-04T10:44:59.329Z,100292.16
2023-02-04T10:47:31.628Z,100296.72
2023-02-04T10:50:05.972Z,100298.78
2023-02-04T10:52:40.386Z,100305.88
2023-02-04T10:55:13.909Z,100307.84
2023-02-04T10:57:43.842Z,100308.00
2023-02-04T11:00:18.364Z,100301.37
2023-02-04T11:03:04.438Z,100309.25
2023-02-04T11:05:34.347Z,100311.16
2023-02-04T11:08:03.770Z,100312.09
2023-02-04T11:10:34.100Z,100312.97
2023-02-04T11:13:06.329Z,100306.19
2023-02-04T11:15:49.864Z,100317.47
2023-02-04T11:18:21.765Z,100312.41
2023-02-04T11:20:52.340Z,100316.03
2023-02-04T11:23:39.901Z,100300.00
2023-02-04T11:26:22.847Z,100317.38
2023-02-04T11:28:59.905Z,100316.53
2023-02-04T11:31:27.668Z,100325.37
2023-02-04T11:34:25.261Z,100322.97
2023-02-04T11:36:58.655Z,100325.81
2023-02-04T11:39:42.722Z,100331.72
2023-02-04T11:42:25.512Z,100326.06
2023-02-04T11:44:55.309Z,100338.91
2023-02-04T11:47:25.820Z,100334.84
2023-02-04T11:50:02.691Z,100334.75
2023-02-04T11:52:31.041Z,100335.41
2023-02-04T11:55:00.505Z,100342.41
2023-02-04T11:57:28.515Z,100340.91
2023-02-04T11:59:56.444Z,100342.84
2023-02-04T12:02:28.807Z,100342.78
2023-02-04T12:04:58.858Z,100316.69
2023-02-04T12:07:29.736Z,100348.44
2023-02-04T12:09:58.546Z,100357.34
2023-02-04T12:12:31.044Z,100355.72
2023-02-04T12:15:02.529Z,100363.66
2023-02-04T12:17:31.668Z,100358.56
2023-02-04T12:19:59.852Z,100362.87
2023-02-04T12:22:30.511Z,100368.12
2023-02-04T12:24:58.564Z,100361.50
2023-02-04T12:27:26.997Z,100371.72
2023-02-04T12:29:54.646Z,100362.56
2023-02-04T12:32:22.331Z,100378.06
2023-02-04T12:34:50.541Z,100380.63
2023-02-04T12:37:18.254Z,100379.94
2023-02-04T12:39:46.590Z,100376.44
2023-02-04T12:42:14.790Z,100383.34
2023-02-04T12:44:42.530Z,100389.47
2023-02-04T12:47:10.299Z,100396.44
2023-02-04T12:49:38.567Z,100367.47
2023-02-04T12:52:09.739Z,100377.13
2023-02-04T12:54:37.605Z,100397.63
2023-02-04T12:57:08.594Z,100398.44
2023-02-04T12:59:36.434Z,100396.97
2023-02-04T13:02:04.420Z,100399.53
2023-02-04T13:04:32.599Z,100401.25
2023-02-04T13:07:01.580Z,100404.72
2023-02-04T13:09:30.687Z,100397.03
2023-02-04T13:12:01.634Z,100405.72
2023-02-04T13:14:29.586Z,100410.09
2023-02-04T13:16:57.440Z,100413.53
2023-02-04T13:19:25.744Z,100413.59
2023-02-04T13:21:53.719Z,100414.59
2023-02-04T13:24:21.866Z,100418.12
2023-02-04T13:26:50.336Z,100412.06
2023-02-04T13:29:18.811Z,100417.19
2023-02-04T13:31:46.688Z,100421.53
2023-02-04T13:34:14.960Z,100424.25
2023-02-04T13:36:45.664Z,100430.28
2023-02-04T13:39:14.897Z,100430.37
2023-02-04T13:41:43.439Z,100427.00
2023-02-04T13:44:11.613Z,100421.06
2023-02-04T13:46:42.327Z,100428.75
2023-02-04T13:49:10.582Z,100430.53
2023-02-04T13:51:38.443Z,100425.66
2023-02-04T13:54:06.371Z,100440.09
2023-02-04T13:56:34.565Z,100435.97
2023-02-04T13:59:02.477Z,100444.69
2023-02-04T14:01:30.573Z,100443.91
2023-02-04T14:03:58.913Z,100437.28
2023-02-04T14:06:33.882Z,100446.66
2023-02-04T14:09:02.385Z,100454.47
2023-02-04T14:11:30.744Z,100430.06
2023-02-04T14:13:58.626Z,100457.41
2023-02-04T14:16:26.853Z,100435.44
2023-02-04T14:18:57.850Z,100465.25
2023-02-04T14:21:26.294Z,100462.84
2023-02-04T14:23:54.227Z,100464.56
2023-02-04T14:26:22.024Z,100446.91
2023-02-04T14:28:50.154Z,100477.47
2023-02-04T14:31:18.605Z,100479.25
2023-02-04T14:33:47.634Z,100478.47
2023-02-04T14:36:18.900Z,100481.84
2023-02-04T14:38:46.730Z,100486.28
2023-02-04T14:41:18.532Z,100483.63
2023-02-04T14:43:46.798Z,100483.09
2023-02-04T14:46:14.750Z,100475.44
2023-02-04T14:48:42.819Z,100501.87
2023-02-04T14:51:13.064Z,100499.31
2023-02-04T14:53:44.077Z,100500.19
2023-02-04T14:56:17.100Z,100507.06
2023-02-04T14:58:44.909Z,100502.72
2023-02-04T15:01:12.858Z,100513.16
2023-02-04T15:03:40.977Z,100480.06
2023-02-04T15:06:08.865Z,100516.62
2023-02-04T15:08:36.895Z,100518.31
2023-02-04T15:11:05.318Z,100507.19
2023-02-04T15:13:33.216Z,100508.06
2023-02-04T15:16:01.063Z,100512.44
2023-02-04T15:18:30.586Z,100490.50
2023-02-04T15:21:04.876Z,100523.81
2023-02-04T15:23:35.346Z,100517.06
2023-02-04T15:26:03.505Z,100532.47
2023-02-04T15:28:31.728Z,100531.56
2023-02-04T15:31:00.084Z,100533.22
2023-02-04T15:33:28.341Z,100498.28
2023-02-04T15:36:15.944Z,100510.44
2023-02-04T15:38:45.604Z,100538.69
2023-02-04T15:41:13.461Z,100534.25
2023-02-04T15:43:41.397Z,100543.72
2023-02-04T15:46:09.513Z,100546.28
2023-02-04T15:48:37.481Z,100540.31
2023-02-04T15:51:08.127Z,100544.66
2023-02-04T15:53:36.475Z,100557.72
2023-02-04T15:56:05.354Z,100556.09
2023-02-04T15:58:33.193Z,100560.47
2023-02-04T16:01:01.785Z,100558.03
2023-02-04T16:03:30.116Z,100561.47
2023-02-04T16:05:57.940Z,100565.87
2023-02-04T16:08:25.738Z,100565.94
2023-02-04T16:10:54.620Z,100564.25
2023-02-04T16:13:22.596Z,100574.66
2023-02-04T16:15:50.812Z,100576.44
2023-02-04T16:18:19.123Z,100579.16
2023-02-04T16:20:47.122Z,100556.13
2023-02-04T16:23:14.964Z,100583.34
2023-02-04T16:25:43.146Z,100591.09
2023-02-04T16:28:11.032Z,100584.22
2023-02-04T16:30:39.659Z,100558.72
2023-02-04T16:33:07.958Z,100593.56
2023-02-04T16:36:00.304Z,100595.28
2023-02-04T16:38:29.523Z,100603.97
2023-02-04T16:40:57.496Z,100607.28
2023-02-04T16:43:25.698Z,100609.81
2023-02-04T16:45:56.815Z,100613.25
2023-02-04T16:48:24.868Z,100605.59
2023-02-04T16:50:53.517Z,100609.87
2023-02-04T16:53:21.438Z,100600.53
2023-02-04T16:55:49.472Z,100620.97
2023-02-04T16:58:20.952Z,100621.84
2023-02-04T17:00:50.665Z,100616.69
2023-02-04T17:03:18.980Z,100622.72
2023-02-04T17:05:46.750Z,100627.91
2023-02-04T17:08:15.481Z,100630.50
2023-02-04T17:11:02.257Z,100623.69
2023-02-04T17:13:30.175Z,100641.63
2023-02-04T17:16:01.361Z,100633.78
2023-02-04T17:18:31.006Z,100632.94
2023-02-04T17:20:59.971Z,100631.22
2023-02-04T17:23:28.972Z,100634.47
2023-02-04T17:25:56.947Z,100636.25
2023-02-04T17:28:26.551Z,100637.13
2023-02-04T17:30:54.390Z,100607.53
2023-02-04T17:33:22.643Z,100645.78
2023-02-04T17:35:50.959Z,100643.28
2023-02-04T17:38:18.851Z,100645.06
2023-02-04T17:40:46.918Z,100645.09
2023-02-04T17:43:15.121Z,100651.06
2023-02-04T17:45:43.202Z,100655.28
2023-02-04T17:48:10.947Z,100656.22
2023-02-04T17:50:40.392Z,100657.87
2023-02-04T17:53:09.914Z,100647.00
2023-02-04T17:55:39.693Z,100656.22
2023-02-04T17:58:14.422Z,100660.59
2023-02-04T18:00:44.932Z,100668.34
2023-02-04T18:03:16.617Z,100665.72
2023-02-04T18:05:47.029Z,100672.53
2023-02-04T18:08:34.208Z,100672.44
2023-02-04T18:11:15.912Z,100677.53
2023-02-04T18:13:44.359Z,100670.59
2023-02-04T18:16:25.931Z,100667.09
2023-02-04T18:19:02.839Z,100674.75
2023-02-04T18:21:33.968Z,100669.59
2023-02-04T18:24:27.493Z,100673.75
2023-02-04T18:26:59.704Z,100676.38
2023-02-04T18:29:36.925Z,100678.94
2023-02-04T18:32:23.253Z,100682.41
2023-02-04T18:34:56.306Z,100678.13
2023-02-04T18:37:33.036Z,100686.66
2023-02-04T18:40:26.294Z,100690.94
2023-02-04T18:43:15.612Z,100689.25
2023-02-04T18:45:44.040Z,100644.25
2023-02-04T18:48:21.139Z,100675.62
2023-02-04T18:50:51.797Z,100694.34
2023-02-04T18:53:24.854Z,100702.06
2023-02-04T18:56:02.152Z,100699.47
2023-02-04T18:58:37.919Z,100705.53
2023-02-04T19:01:13.176Z,100711.59
2023-02-04T19:03:53.204Z,100707.25
2023-02-04T19:06:39.230Z,100720.16
2023-02-04T19:09:13.364Z,100710.84
2023-02-04T19:11:47.808Z,100721.06
2023-02-04T19:14:24.561Z,100718.47
2023-02-04T19:16:54.998Z,100719.28
2023-02-04T19:19:32.927Z,100718.37
2023-02-04T19:22:01.320Z,100723.56
2023-02-04T19:24:30.041Z,100727.88
2023-02-04T19:26:59.807Z,100732.13
2023-02-04T19:29:39.240Z,100726.16
2023-02-04T19:32:46.098Z,100731.31
2023-02-04T19:35:20.481Z,100723.66
2023-02-04T19:38:00.866Z,100734.00
2023-02-04T19:40:31.815Z,100729.69
2023-02-04T19:43:20.737Z,100733.91
2023-02-04T19:45:51.317Z,100705.84
2023-02-04T19:48:36.995Z,100737.31
2023-02-04T19:51:18.492Z,100717.81
2023-02-04T19:53:51.860Z,100737.38
2023-02-04T19:56:38.853Z,100742.47
2023-02-04T19:59:15.463Z,100739.06
2023-02-04T20:01:43.535Z,100747.66
2023-02-04T20:04:20.108Z,100741.66
2023-02-04T20:06:48.343Z,100747.75
2023-02-04T20:09:25.470Z,100754.53
2023-02-04T20:12:06.188Z,100755.41
2023-02-04T20:14:44.990Z,100758.84
2023-02-04T20:17:38.667Z,100769.16
2023-02-04T20:20:26.816Z,100762.22
2023-02-04T20:22:59.743Z,100760.56
2023-02-04T20:25:37.348Z,100766.53
2023-02-04T20:28:19.241Z,100775.13
2023-02-04T20:30:52.114Z,100777.81
2023-02-04T20:33:31.543Z,100771.72
2023-02-04T20:36:18.583Z,100779.50
2023-02-04T20:38:46.676Z,100774.34
2023-02-04T20:41:21.129Z,100762.47
2023-02-04T20:43:52.411Z,100782.91
2023-02-04T20:46:24.828Z,100786.34
2023-02-04T20:48:53.083Z,100789.81
2023-02-04T20:51:23.652Z,100788.88
2023-02-04T20:53:58.559Z,100791.47
2023-02-04T20:56:35.605Z,100794.97
2023-02-04T20:59:18.906Z,100793.22
2023-02-04T21:01:49.954Z,100788.88
2023-02-04T21:04:36.992Z,100790.56
2023-02-04T21:07:19.349Z,100797.50
2023-02-04T21:09:48.498Z,100798.28
2023-02-04T21:12:16.741Z,100798.31
2023-02-04T21:14:44.627Z,100797.44
2023-02-04T21:17:12.532Z,100800.91
2023-02-04T21:19:40.630Z,100798.31
2023-02-04T21:22:08.462Z,100807.00
2023-02-04T21:24:36.341Z,100802.63
2023-02-04T21:27:07.695Z,100811.25
2023-02-04T21:29:36.449Z,100806.16
2023-02-04T21:32:04.715Z,100776.50
2023-02-04T21:34:32.642Z,100807.16
2023-02-04T21:37:00.568Z,100808.88
2023-02-04T21:39:30.114Z,100818.28
2023-02-04T21:42:14.282Z,100818.28
2023-02-04T21:44:42.478Z,100817.53
2023-02-04T21:47:10.376Z,100825.31
2023-02-04T21:49:41.278Z,100817.56
2023-02-04T21:52:11.389Z,100829.66
2023-02-04T21:54:39.288Z,100828.03
2023-02-04T21:57:07.137Z,100833.19
2023-02-04T21:59:35.158Z,100836.59
2023-02-04T22:02:02.937Z,100839.19
2023-02-04T22:04:31.183Z,100847.81
2023-02-04T22:06:58.887Z,100842.62
2023-02-04T22:09:26.627Z,100847.88
2023-02-04T22:11:54.873Z,100846.97
2023-02-04T22:14:32.981Z,100855.66
2023-02-04T22:17:01.227Z,100848.88
2023-02-04T22:19:29.095Z,100860.00
2023-02-04T22:21:56.749Z,100860.03
2023-02-04T22:24:28.281Z,100865.28
2023-02-04T22:26:56.099Z,100849.09
2023-02-04T22:29:28.939Z,100857.47
2023-02-04T22:31:57.067Z,100867.06
2023-02-04T22:34:25.781Z,100870.50
2023-02-04T22:36:53.818Z,100873.12
2023-02-04T22:39:21.729Z,100864.53
2023-02-04T22:41:49.969Z,100865.44
2023-02-04T22:44:17.865Z,100869.75
2023-02-04T22:46:47.523Z,100867.28
2023-02-04T22:49:18.974Z,100878.41
2023-02-04T22:51:46.898Z,100880.16
2023-02-04T22:54:15.281Z,100883.63
2023-02-04T22:56:43.088Z,100887.91
2023-02-04T22:59:10.893Z,100881.94
2023-02-04T23:01:39.084Z,100874.37
2023-02-04T23:04:06.943Z,100889.62
2023-02-04T23:06:34.877Z,100895.69
2023-02-04T23:09:03.132Z,100896.50
2023-02-04T23:11:30.924Z,100894.84
2023-02-04T23:13:58.859Z,100897.41
2023-02-04T23:16:30.145Z,100902.59
2023-02-04T23:18:58.552Z,100902.59
2023-02-04T23:21:26.603Z,100894.13
2023-02-04T23:23:54.764Z,100907.84
2023-02-04T23:26:22.797Z,100910.44
2023-02-04T23:28:50.733Z,100872.06
2023-02-04T23:31:19.138Z,100909.53
2023-02-04T23:33:47.071Z,100882.28
2023-02-04T23:36:17.769Z,100890.00
2023-02-04T23:38:46.006Z,100907.87
2023-02-04T23:41:13.736Z,100914.75
2023-02-04T23:43:41.554Z,100908.69
2023-02-04T23:46:12.846Z,100907.84
2023-02-04T23:48:40.647Z,100909.66
2023-02-04T23:51:08.534Z,100908.78
2023-02-04T23:53:36.756Z,100908.81
2023-02-04T23:56:04.824Z,100909.66
2023-02-04T23:58:32.599Z,100915.69
